Time;durP1;ratioP1;P1;durP2;ratioP2;P2;SDS_P1;SDS_P2;PMS_P1;PMS_P2;Temp;Humidity;BMP_temperature;BMP_pressure;BME280_temperature;BME280_humidity;BME280_pressure;Samples;Min_cycle;Max_cycle;Signal;HPM_P1;HPM_P2
2021/05/01 00:00:21;;;;;;;3.13;2.60;;;19.70;46.70;;;;;;4943635;28;20579;-80
2021/05/01 00:02:47;;;;;;;2.57;2.37;;;19.70;46.70;;;;;;4938399;28;20558;-79
2021/05/01 00:05:13;;;;;;;2.87;2.20;;;19.70;46.70;;;;;;4938632;28;20225;-78
2021/05/01 00:07:40;;;;;;;2.90;2.50;;;19.70;46.70;;;;;;4944226;28;20591;-80
2021/05/01 00:10:07;;;;;;;2.97;2.40;;;19.70;46.70;;;;;;4937318;28;20217;-78
2021/05/01 00:12:34;;;;;;;2.30;2.10;;;19.70;46.70;;;;;;4940202;28;20253;-78
2021/05/01 00:15:03;;;;;;;2.97;2.27;;;19.70;46.70;;;;;;4933803;28;20233;-78
2021/05/01 00:17:29;;;;;;;2.50;2.30;;;19.70;46.80;;;;;;4924583;28;20223;-78
2021/05/01 00:19:55;;;;;;;3.13;2.40;;;19.60;46.80;;;;;;4926165;28;20907;-78
2021/05/01 00:22:22;;;;;;;3.27;2.97;;;19.60;46.80;;;;;;4946430;28;20230;-78
2021/05/01 00:24:54;;;;;;;3.10;2.10;;;19.60;46.80;;;;;;4946055;28;20229;-80
2021/05/01 00:27:20;;;;;;;2.37;2.17;;;19.60;46.80;;;;;;4943007;28;20233;-78
2021/05/01 00:29:46;;;;;;;2.40;2.20;;;19.60;46.80;;;;;;4944945;28;20248;-78
2021/05/01 00:32:13;;;;;;;2.60;2.40;;;19.60;46.90;;;;;;4938362;28;20245;-78
2021/05/01 00:34:39;;;;;;;4.17;2.60;;;19.60;46.90;;;;;;4941443;28;20693;-78
2021/05/01 00:37:05;;;;;;;3.47;2.60;;;19.60;46.90;;;;;;4932908;28;20237;-78
2021/05/01 00:39:32;;;;;;;3.30;2.17;;;19.60;46.90;;;;;;4942479;28;21732;-78
2021/05/01 00:42:04;;;;;;;2.37;2.17;;;19.50;46.90;;;;;;4928445;28;20430;-78
2021/05/01 00:44:30;;;;;;;3.70;2.50;;;19.60;47.00;;;;;;4939791;28;20237;-78
2021/05/01 00:46:56;;;;;;;2.83;2.30;;;19.60;47.00;;;;;;4940778;28;20240;-78
2021/05/01 00:49:26;;;;;;;3.77;2.23;;;19.60;47.00;;;;;;4941543;28;20217;-78
2021/05/01 00:51:52;;;;;;;2.80;2.50;;;19.50;47.00;;;;;;4934006;28;20226;-79
2021/05/01 00:54:18;;;;;;;2.23;1.93;;;19.50;47.00;;;;;;4940907;28;20716;-79
2021/05/01 00:56:45;;;;;;;2.70;2.10;;;19.50;47.00;;;;;;4937573;28;20233;-78
2021/05/01 00:59:11;;;;;;;3.30;2.70;;;19.50;47.10;;;;;;4939049;28;20226;-78
2021/05/01 01:01:46;;;;;;;2.50;2.07;;;19.50;47.00;;;;;;4946185;28;20233;-78
2021/05/01 01:04:13;;;;;;;2.43;2.00;;;19.50;47.10;;;;;;4943588;28;20460;-78
2021/05/01 01:06:39;;;;;;;3.20;2.30;;;19.50;47.10;;;;;;4945183;28;20241;-78
2021/05/01 01:09:06;;;;;;;2.97;2.17;;;19.50;47.10;;;;;;4940506;28;20591;-78
2021/05/01 01:11:36;;;;;;;3.10;2.37;;;19.50;47.10;;;;;;4938932;28;20458;-78
2021/05/01 01:14:06;;;;;;;3.47;2.33;;;19.50;47.10;;;;;;4945432;28;20930;-78
2021/05/01 01:16:34;;;;;;;2.83;2.50;;;19.50;47.20;;;;;;4947301;28;20221;-78
2021/05/01 01:19:01;;;;;;;2.97;2.30;;;19.50;47.20;;;;;;4935871;28;20241;-78
2021/05/01 01:21:28;;;;;;;2.70;2.30;;;19.40;47.10;;;;;;4945200;28;20237;-78
2021/05/01 01:23:54;;;;;;;2.50;2.27;;;19.40;47.10;;;;;;4933063;28;20438;-78
2021/05/01 01:26:21;;;;;;;2.50;2.30;;;19.40;47.20;;;;;;4941485;28;20236;-78
2021/05/01 01:28:48;;;;;;;2.23;2.03;;;19.40;47.20;;;;;;4930440;28;20230;-79
2021/05/01 01:31:14;;;;;;;2.70;2.03;;;19.40;47.20;;;;;;4944490;28;20616;-79
2021/05/01 01:33:42;;;;;;;3.13;2.27;;;19.40;47.30;;;;;;4943348;28;20587;-79
2021/05/01 01:36:08;;;;;;;2.50;2.10;;;19.40;47.20;;;;;;4946099;28;20222;-80
2021/05/01 01:38:35;;;;;;;2.30;2.10;;;19.30;47.20;;;;;;4931581;28;20287;-79
2021/05/01 01:41:01;;;;;;;2.63;2.43;;;19.40;47.30;;;;;;4944582;28;20485;-79
2021/05/01 01:43:30;;;;;;;2.47;2.27;;;19.40;47.30;;;;;;4959832;28;20233;-78
2021/05/01 01:46:00;;;;;;;2.10;1.90;;;19.30;47.20;;;;;;4943520;28;20877;-77
2021/05/01 01:48:26;;;;;;;2.40;2.20;;;19.30;47.30;;;;;;4933514;28;20697;-78
2021/05/01 01:50:53;;;;;;;2.33;1.77;;;19.40;47.30;;;;;;4941831;28;20730;-78
2021/05/01 01:53:23;;;;;;;2.10;1.90;;;19.30;47.30;;;;;;4941888;28;20229;-78
2021/05/01 01:55:57;;;;;;;2.67;1.97;;;19.30;47.40;;;;;;4944988;28;20233;-78
2021/05/01 01:58:27;;;;;;;2.60;2.13;;;19.30;47.30;;;;;;4949254;28;20224;-78
2021/05/01 02:00:59;;;;;;;2.67;2.10;;;19.30;47.30;;;;;;4944649;28;20245;-78
2021/05/01 02:03:26;;;;;;;2.23;2.00;;;19.30;47.40;;;;;;4946732;28;20232;-78
2021/05/01 02:05:52;;;;;;;3.30;2.20;;;19.30;47.40;;;;;;4940817;28;20229;-78
2021/05/01 02:08:19;;;;;;;2.17;1.97;;;19.30;47.50;;;;;;4943298;28;20325;-79
2021/05/01 02:10:45;;;;;;;2.30;2.00;;;19.30;47.50;;;;;;4938446;28;20237;-78
2021/05/01 02:13:11;;;;;;;2.63;2.10;;;19.20;47.40;;;;;;4944832;28;20222;-78
2021/05/01 02:15:37;;;;;;;3.27;1.97;;;19.30;47.50;;;;;;4939307;28;20705;-78
2021/05/01 02:18:04;;;;;;;2.40;2.10;;;19.30;47.50;;;;;;4947758;28;20225;-78
2021/05/01 02:20:33;;;;;;;2.07;1.87;;;19.20;47.50;;;;;;4948360;28;20236;-78
2021/05/01 02:22:59;;;;;;;3.83;1.90;;;19.20;47.50;;;;;;4946255;28;20249;-79
2021/05/01 02:25:26;;;;;;;3.10;2.27;;;19.20;47.50;;;;;;4947275;28;20732;-78
2021/05/01 02:27:53;;;;;;;3.10;2.63;;;19.20;47.50;;;;;;4942992;28;20218;-79
2021/05/01 02:30:26;;;;;;;2.73;2.17;;;19.20;47.50;;;;;;4947161;28;20230;-79
2021/05/01 02:32:53;;;;;;;2.90;2.23;;;19.20;47.50;;;;;;4944097;28;20218;-79
2021/05/01 02:35:25;;;;;;;2.40;1.87;;;19.20;47.50;;;;;;4948369;28;20236;-80
2021/05/01 02:37:52;;;;;;;2.30;1.87;;;19.20;47.50;;;;;;4940786;28;20229;-79
2021/05/01 02:40:20;;;;;;;3.03;2.00;;;19.20;47.70;;;;;;4936600;28;20637;-79
2021/05/01 02:42:47;;;;;;;2.00;1.80;;;19.20;47.60;;;;;;4942802;28;20755;-79
2021/05/01 02:45:17;;;;;;;2.03;1.80;;;19.10;47.50;;;;;;4948535;28;20230;-79
2021/05/01 02:47:44;;;;;;;1.77;1.67;;;19.20;47.60;;;;;;4934800;28;20237;-79
2021/05/01 02:50:12;;;;;;;2.23;2.00;;;19.20;47.70;;;;;;4939569;28;20356;-79
2021/05/01 02:52:38;;;;;;;2.60;2.00;;;19.20;47.60;;;;;;4943861;28;20729;-79
2021/05/01 02:55:06;;;;;;;1.90;1.70;;;19.10;47.60;;;;;;4945456;28;20221;-85
2021/05/01 02:57:35;;;;;;;2.10;1.87;;;19.10;47.70;;;;;;4947788;28;20237;-78
2021/05/01 03:00:06;;;;;;;2.23;2.03;;;19.10;47.70;;;;;;4945631;28;20732;-78
2021/05/01 03:02:32;;;;;;;2.53;1.87;;;19.10;47.70;;;;;;4950694;28;20245;-78
2021/05/01 03:04:59;;;;;;;3.30;1.70;;;19.10;47.70;;;;;;4944699;28;20608;-78
2021/05/01 03:07:26;;;;;;;2.00;1.63;;;19.00;47.70;;;;;;4934152;28;20235;-78
2021/05/01 03:09:53;;;;;;;2.57;2.13;;;19.10;47.80;;;;;;4942722;28;20612;-78
2021/05/01 03:12:19;;;;;;;2.60;2.03;;;19.10;47.80;;;;;;4944255;28;20768;-78
2021/05/01 03:14:45;;;;;;;2.20;1.83;;;19.00;47.80;;;;;;4941484;28;20233;-78
2021/05/01 03:17:13;;;;;;;2.93;2.10;;;19.00;47.80;;;;;;4933742;28;20232;-78
2021/05/01 03:19:41;;;;;;;2.37;1.93;;;19.00;47.80;;;;;;4941305;28;20240;-79
2021/05/01 03:22:09;;;;;;;3.20;1.90;;;19.00;47.80;;;;;;4948874;28;20636;-79
2021/05/01 03:24:39;;;;;;;3.33;2.20;;;19.00;47.80;;;;;;4946352;28;20311;-78
2021/05/01 03:27:14;;;;;;;2.00;1.80;;;19.00;47.80;;;;;;4941460;28;20241;-79
2021/05/01 03:29:43;;;;;;;2.47;2.23;;;19.00;47.80;;;;;;4942806;28;20233;-78
2021/05/01 03:32:11;;;;;;;2.47;2.23;;;19.00;47.90;;;;;;4945718;28;20240;-78
2021/05/01 03:34:38;;;;;;;3.20;2.17;;;19.00;47.90;;;;;;4937522;28;20256;-79
2021/05/01 03:37:07;;;;;;;1.80;1.70;;;19.00;47.90;;;;;;4941467;28;20859;-79
2021/05/01 03:39:34;;;;;;;2.20;2.00;;;19.00;47.90;;;;;;4937012;28;20599;-79
2021/05/01 03:42:04;;;;;;;2.03;1.90;;;19.00;47.90;;;;;;4927234;28;20655;-79
2021/05/01 03:44:39;;;;;;;2.37;1.77;;;19.00;48.00;;;;;;4946133;28;22344;-79
2021/05/01 03:47:06;;;;;;;2.80;2.00;;;19.00;47.90;;;;;;4941499;28;20704;-78
2021/05/01 03:49:32;;;;;;;2.53;2.13;;;19.00;47.90;;;;;;4930996;28;20309;-78
2021/05/01 03:51:59;;;;;;;2.47;2.27;;;19.00;48.00;;;;;;4928328;28;20295;-79
2021/05/01 03:54:25;;;;;;;2.60;2.30;;;18.90;47.90;;;;;;4948086;28;20465;-78
2021/05/01 03:56:51;;;;;;;3.90;2.20;;;19.00;47.90;;;;;;4951476;28;20570;-78
2021/05/01 03:59:18;;;;;;;2.67;2.03;;;18.90;47.90;;;;;;4945889;28;20236;-79
2021/05/01 04:01:44;;;;;;;2.23;1.90;;;18.90;48.00;;;;;;4948294;28;22030;-78
2021/05/01 04:04:11;;;;;;;4.43;2.00;;;18.90;48.00;;;;;;4932070;28;20346;-78
2021/05/01 04:06:38;;;;;;;3.17;1.97;;;18.90;48.00;;;;;;4947865;28;20225;-78
2021/05/01 04:09:04;;;;;;;2.80;2.00;;;18.90;47.90;;;;;;4943954;28;20221;-78
2021/05/01 04:11:37;;;;;;;2.40;2.10;;;18.90;47.90;;;;;;4948089;28;20226;-79
2021/05/01 04:14:03;;;;;;;2.30;2.10;;;18.90;47.90;;;;;;4947021;28;20218;-80
2021/05/01 04:16:29;;;;;;;2.20;1.90;;;18.90;47.90;;;;;;4945639;28;20222;-80
2021/05/01 04:18:56;;;;;;;3.00;2.30;;;18.90;47.90;;;;;;4944644;28;20721;-80
2021/05/01 04:21:23;;;;;;;3.20;2.40;;;18.90;47.90;;;;;;4947924;28;20243;-80
2021/05/01 04:23:50;;;;;;;2.63;2.27;;;18.90;47.90;;;;;;4946552;28;20265;-81
2021/05/01 04:26:20;;;;;;;3.93;2.47;;;18.80;47.80;;;;;;4952914;28;20244;-80
2021/05/01 04:28:47;;;;;;;3.07;2.33;;;18.80;47.80;;;;;;4948813;28;20730;-79
2021/05/01 04:31:17;;;;;;;3.03;2.17;;;18.90;47.90;;;;;;4948703;28;20745;-80
2021/05/01 04:33:43;;;;;;;2.63;2.20;;;18.80;47.70;;;;;;4966941;28;20288;-80
2021/05/01 04:36:13;;;;;;;3.20;2.60;;;18.80;47.70;;;;;;4971382;28;20213;-80
2021/05/01 04:38:39;;;;;;;3.90;2.57;;;18.80;47.70;;;;;;4946309;28;20225;-80
2021/05/01 04:41:05;;;;;;;3.50;2.43;;;18.80;47.70;;;;;;4947996;28;20236;-81
2021/05/01 04:43:34;;;;;;;2.90;2.60;;;18.80;47.70;;;;;;4941780;28;20311;-81
2021/05/01 04:46:03;;;;;;;3.80;2.60;;;18.70;47.60;;;;;;4944850;28;20237;-82
2021/05/01 04:48:30;;;;;;;3.93;2.60;;;18.80;47.70;;;;;;4941574;28;20226;-81
2021/05/01 04:50:58;;;;;;;2.80;2.50;;;18.80;47.70;;;;;;4942758;28;20218;-81
2021/05/01 04:53:24;;;;;;;2.40;2.20;;;18.80;47.60;;;;;;4947811;28;20225;-81
2021/05/01 04:55:51;;;;;;;2.83;2.33;;;18.80;47.70;;;;;;4948356;28;20228;-82
2021/05/01 04:58:22;;;;;;;2.60;2.30;;;18.80;47.60;;;;;;4938517;28;20229;-81
2021/05/01 05:00:49;;;;;;;5.40;2.43;;;18.80;47.60;;;;;;4947363;28;20221;-81
2021/05/01 05:03:15;;;;;;;4.07;2.40;;;18.80;47.60;;;;;;4937962;28;20361;-81
2021/05/01 05:05:41;;;;;;;2.73;2.47;;;18.80;47.60;;;;;;4952123;28;20221;-81
2021/05/01 05:08:07;;;;;;;3.40;2.60;;;18.70;47.50;;;;;;4948092;28;20241;-81
2021/05/01 05:10:34;;;;;;;2.90;2.67;;;18.80;47.90;;;;;;4947398;28;20732;-81
2021/05/01 05:13:00;;;;;;;5.00;2.47;;;18.70;47.50;;;;;;4952695;28;20244;-81
2021/05/01 05:15:27;;;;;;;4.20;2.97;;;18.80;47.50;;;;;;4950663;28;20213;-81
2021/05/01 05:17:54;;;;;;;3.40;2.90;;;18.70;47.40;;;;;;4944827;28;20237;-80
2021/05/01 05:20:22;;;;;;;4.33;2.63;;;18.70;47.50;;;;;;4949901;28;20228;-80
2021/05/01 05:22:48;;;;;;;3.03;2.73;;;18.70;47.40;;;;;;4936587;28;20703;-80
2021/05/01 05:25:14;;;;;;;3.80;2.87;;;18.70;47.40;;;;;;4951793;28;20297;-81
2021/05/01 05:27:41;;;;;;;3.43;2.80;;;18.70;47.40;;;;;;4952410;28;20240;-80
2021/05/01 05:30:07;;;;;;;3.77;2.73;;;18.70;47.40;;;;;;4950013;28;20226;-81
2021/05/01 05:32:34;;;;;;;5.60;3.07;;;18.70;47.40;;;;;;4944039;28;20222;-80
2021/05/01 05:35:00;;;;;;;4.07;2.90;;;18.70;47.30;;;;;;4948451;28;20218;-80
2021/05/01 05:37:26;;;;;;;2.97;2.67;;;18.70;47.40;;;;;;4952074;28;20265;-81
2021/05/01 05:39:53;;;;;;;3.93;2.80;;;18.70;47.30;;;;;;4951483;28;20756;-81
2021/05/01 05:42:21;;;;;;;2.80;2.40;;;18.70;47.30;;;;;;4955057;28;20218;-81
2021/05/01 05:44:58;;;;;;;3.37;3.00;;;18.70;47.30;;;;;;4948263;28;20245;-80
2021/05/01 05:47:24;;;;;;;4.13;2.70;;;18.70;47.30;;;;;;4938305;28;20245;-81
2021/05/01 05:49:50;;;;;;;3.30;2.97;;;18.60;47.30;;;;;;4940798;28;20309;-81
2021/05/01 05:52:17;;;;;;;4.60;2.77;;;18.70;47.30;;;;;;4943562;28;20221;-81
2021/05/01 05:54:44;;;;;;;2.97;2.67;;;18.70;47.30;;;;;;4939796;28;20222;-81
2021/05/01 05:57:11;;;;;;;2.83;2.63;;;18.70;47.30;;;;;;4952134;28;20222;-81
2021/05/01 05:59:40;;;;;;;3.47;2.90;;;18.70;47.30;;;;;;4948375;28;20229;-80
2021/05/01 06:02:07;;;;;;;3.20;2.90;;;18.70;47.90;;;;;;4952717;28;20248;-81
2021/05/01 06:04:50;;;;;;;5.33;2.90;;;18.70;47.30;;;;;;4942390;28;20253;-81
2021/05/01 06:07:26;;;;;;;4.57;3.10;;;18.70;47.30;;;;;;4949712;28;20634;-81
2021/05/01 06:09:55;;;;;;;3.33;2.50;;;18.70;47.30;;;;;;4950090;28;20843;-82
2021/05/01 06:12:23;;;;;;;3.30;3.00;;;18.70;47.30;;;;;;4952124;28;20225;-82
2021/05/01 06:14:57;;;;;;;4.67;3.00;;;18.60;47.20;;;;;;4939071;28;20224;-81
2021/05/01 06:17:24;;;;;;;3.40;2.63;;;18.70;47.30;;;;;;4947796;28;20225;-81
2021/05/01 06:19:55;;;;;;;3.43;2.70;;;18.70;47.40;;;;;;4937834;28;20245;-82
2021/05/01 06:22:21;;;;;;;3.70;2.50;;;18.70;47.30;;;;;;4942912;28;20726;-81
2021/05/01 06:24:53;;;;;;;2.50;2.30;;;18.60;47.20;;;;;;4937979;28;20245;-81
2021/05/01 06:27:21;;;;;;;4.50;2.70;;;18.70;47.30;;;;;;4952401;28;20397;-80
2021/05/01 06:29:48;;;;;;;3.00;2.40;;;18.70;47.30;;;;;;4950625;28;20415;-81
2021/05/01 06:32:19;;;;;;;2.70;2.47;;;18.60;47.30;;;;;;4938914;28;20528;-81
2021/05/01 06:34:54;;;;;;;2.67;2.47;;;18.60;47.20;;;;;;4946485;28;20334;-78
2021/05/01 06:37:21;;;;;;;3.20;2.70;;;18.70;47.40;;;;;;4936097;28;20300;-80
2021/05/01 06:39:49;;;;;;;3.10;2.60;;;18.60;47.40;;;;;;4950106;28;20218;-81
2021/05/01 06:42:19;;;;;;;2.73;2.40;;;18.70;47.40;;;;;;4951559;28;20252;-83
2021/05/01 06:45:09;;;;;;;3.23;2.47;;;18.60;47.40;;;;;;4947464;28;20439;-83
2021/05/01 06:48:03;;;;;;;2.40;2.20;;;18.60;47.30;;;;;;4940104;28;20584;-84
2021/05/01 06:50:33;;;;;;;3.70;2.50;;;18.70;47.40;;;;;;4938617;28;20677;-83
2021/05/01 06:53:01;;;;;;;2.93;2.20;;;18.60;47.30;;;;;;4950916;28;20469;-83
2021/05/01 06:55:32;;;;;;;2.87;2.23;;;18.60;47.30;;;;;;4952602;28;20228;-80
2021/05/01 06:58:06;;;;;;;2.43;2.23;;;18.70;47.30;;;;;;4951392;28;20629;-81
2021/05/01 07:00:33;;;;;;;3.00;2.40;;;18.70;47.30;;;;;;4948840;28;20228;-81
2021/05/01 07:03:04;;;;;;;4.50;2.50;;;18.70;47.20;;;;;;4941915;28;20780;-80
2021/05/01 07:05:33;;;;;;;4.30;2.40;;;18.70;47.40;;;;;;4936788;28;20237;-79
2021/05/01 07:08:00;;;;;;;5.03;2.77;;;18.70;47.60;;;;;;4946863;28;20226;-79
2021/05/01 07:10:26;;;;;;;3.77;2.73;;;18.70;48.10;;;;;;4940120;28;20592;-79
2021/05/01 07:12:53;;;;;;;5.17;2.60;;;18.70;48.10;;;;;;4943214;28;20843;-79
2021/05/01 07:15:19;;;;;;;5.83;2.93;;;18.70;48.40;;;;;;4944968;28;20316;-79
2021/05/01 07:17:51;;;;;;;5.17;2.83;;;18.80;48.80;;;;;;4945038;28;20854;-79
2021/05/01 07:20:18;;;;;;;5.17;2.90;;;18.80;48.60;;;;;;4944218;28;20427;-78
2021/05/01 07:22:44;;;;;;;7.10;3.50;;;18.70;48.40;;;;;;4942525;28;20234;-79
2021/05/01 07:25:13;;;;;;;3.90;2.97;;;18.70;48.40;;;;;;4946122;28;20237;-79
2021/05/01 07:27:57;;;;;;;5.97;3.10;;;18.70;48.30;;;;;;4942912;28;20388;-79
2021/05/01 07:30:26;;;;;;;5.67;2.90;;;18.80;48.30;;;;;;4943720;28;20237;-79
2021/05/01 07:32:55;;;;;;;6.87;3.30;;;18.80;48.10;;;;;;4940368;28;20602;-79
2021/05/01 07:35:24;;;;;;;4.37;2.87;;;18.70;48.00;;;;;;4947438;28;20229;-79
2021/05/01 07:37:53;;;;;;;4.80;3.10;;;18.70;48.00;;;;;;4946023;28;20237;-80
2021/05/01 07:40:23;;;;;;;5.73;2.93;;;18.70;47.90;;;;;;4950149;28;20228;-80
2021/05/01 07:42:51;;;;;;;4.83;2.63;;;18.80;47.90;;;;;;4947066;28;20230;-80
2021/05/01 07:45:21;;;;;;;6.13;3.30;;;18.70;47.70;;;;;;4944160;28;21733;-80
2021/05/01 07:47:56;;;;;;;3.30;3.00;;;18.80;48.30;;;;;;4945513;28;20593;-80
2021/05/01 07:50:26;;;;;;;3.90;2.93;;;18.80;47.60;;;;;;4938566;28;20241;-79
2021/05/01 07:52:53;;;;;;;5.70;3.63;;;18.80;47.60;;;;;;4949017;28;20465;-80
2021/05/01 07:55:21;;;;;;;4.83;3.13;;;18.80;47.50;;;;;;4948946;28;20224;-81
2021/05/01 07:57:48;;;;;;;4.27;2.60;;;18.80;47.40;;;;;;4950887;28;20745;-79
2021/05/01 08:00:16;;;;;;;5.37;2.90;;;18.80;47.40;;;;;;4946163;28;20217;-79
2021/05/01 08:02:43;;;;;;;4.13;2.73;;;18.80;47.40;;;;;;4932076;28;20304;-79
2021/05/01 08:05:15;;;;;;;6.00;2.97;;;18.80;47.40;;;;;;4949060;28;20217;-81
2021/05/01 08:07:45;;;;;;;4.13;2.77;;;18.80;47.30;;;;;;4947362;28;20734;-80
2021/05/01 08:10:12;;;;;;;4.50;2.80;;;18.80;47.20;;;;;;4949341;28;20232;-80
2021/05/01 08:12:38;;;;;;;2.80;2.43;;;18.80;47.20;;;;;;4947228;28;20281;-80
2021/05/01 08:15:30;;;;;;;4.40;2.73;;;18.80;47.20;;;;;;4945343;28;20261;-80
2021/05/01 08:18:02;;;;;;;4.13;2.93;;;18.80;47.10;;;;;;4936430;28;20975;-80
2021/05/01 08:20:36;;;;;;;3.40;2.40;;;18.90;47.00;;;;;;4946145;28;20231;-83
2021/05/01 08:23:05;;;;;;;5.30;2.73;;;18.80;46.90;;;;;;4936147;28;20279;-82
2021/05/01 08:25:31;;;;;;;5.00;3.20;;;18.80;46.80;;;;;;4949678;28;20216;-82
2021/05/01 08:27:58;;;;;;;3.80;2.90;;;18.80;46.80;;;;;;4946584;28;20242;-85
2021/05/01 08:30:24;;;;;;;3.53;2.70;;;18.90;46.80;;;;;;4949618;28;20261;-83
2021/05/01 08:32:53;;;;;;;6.00;3.90;;;18.80;46.70;;;;;;4959279;28;20231;-89
2021/05/01 08:35:19;;;;;;;13.27;5.20;;;18.80;47.90;;;;;;4952564;28;20229;-89
2021/05/01 08:37:47;;;;;;;19.13;6.00;;;18.90;48.80;;;;;;4949199;28;20264;-86
2021/05/01 08:40:14;;;;;;;23.33;6.80;;;19.00;49.40;;;;;;4949260;28;20228;-87
2021/05/01 08:42:46;;;;;;;22.90;7.77;;;19.10;50.20;;;;;;4951437;28;20248;-87
2021/05/01 08:45:19;;;;;;;24.73;6.40;;;19.20;50.30;;;;;;4950887;28;20225;-87
2021/05/01 08:47:48;;;;;;;16.57;6.07;;;19.20;49.60;;;;;;4950111;28;21745;-90
2021/05/01 08:50:25;;;;;;;19.63;6.63;;;19.30;49.10;;;;;;4953222;28;20492;-83
2021/05/01 08:52:52;;;;;;;19.60;5.57;;;19.40;48.90;;;;;;4945461;28;20558;-80
2021/05/01 08:55:24;;;;;;;14.53;5.23;;;19.50;48.80;;;;;;4947355;28;20236;-86
2021/05/01 08:57:51;;;;;;;15.33;4.83;;;19.50;48.50;;;;;;4945647;28;20610;-84
2021/05/01 09:00:18;;;;;;;12.90;4.93;;;19.60;48.30;;;;;;4952073;28;20264;-87
2021/05/01 09:02:47;;;;;;;10.50;4.77;;;19.70;48.00;;;;;;4945875;28;21248;-82
2021/05/01 09:05:14;;;;;;;13.00;4.80;;;19.70;47.90;;;;;;4947143;28;20217;-86
2021/05/01 09:07:45;;;;;;;12.90;4.93;;;19.70;47.80;;;;;;4949108;28;20252;-79
2021/05/01 09:10:45;;;;;;;9.37;4.10;;;19.70;47.50;;;;;;4946568;28;20238;-85
2021/05/01 09:13:14;;;;;;;28.10;7.30;;;19.70;47.30;;;;;;4938481;28;20244;-81
2021/05/01 09:15:53;;;;;;;35.67;7.47;;;19.80;49.30;;;;;;4950824;28;20248;-83
2021/05/01 09:18:20;;;;;;;39.37;8.07;;;19.90;48.70;;;;;;4946086;28;20253;-80
2021/05/01 09:20:46;;;;;;;27.90;7.60;;;20.00;48.20;;;;;;4951818;28;20230;-81
2021/05/01 09:23:12;;;;;;;37.00;8.97;;;20.00;48.10;;;;;;4946528;28;20735;-83
2021/05/01 09:25:58;;;;;;;34.57;8.97;;;20.00;49.30;;;;;;4947475;28;20251;-84
2021/05/01 09:28:33;;;;;;;30.33;8.63;;;20.10;48.60;;;;;;4945252;28;20296;-83
2021/05/01 09:31:11;;;;;;;26.83;8.83;;;20.20;48.80;;;;;;4946478;28;20214;-80
2021/05/01 09:33:40;;;;;;;20.87;7.60;;;20.20;48.40;;;;;;4938154;28;20232;-84
2021/05/01 09:36:16;;;;;;;21.80;7.63;;;20.30;48.60;;;;;;4937355;28;20233;-82
2021/05/01 09:38:44;;;;;;;23.83;7.13;;;;;;;;;;4933163;28;20881;-78
2021/05/01 09:41:13;;;;;;;17.87;6.40;;;;;;;;;;4933332;28;20237;-80
2021/05/01 09:43:54;;;;;;;19.03;5.67;;;;;;;;;;4960168;28;20217;-78
2021/05/01 09:46:21;;;;;;;15.50;6.13;;;20.70;60.50;;;;;;4945897;28;20648;-78
2021/05/01 09:49:08;;;;;;;14.40;5.67;;;20.70;61.80;;;;;;4946157;28;20270;-78
2021/05/01 09:51:54;;;;;;;17.63;5.23;;;20.70;60.70;;;;;;4932536;28;20232;-80
2021/05/01 09:54:25;;;;;;;9.90;4.90;;;20.60;58.90;;;;;;4934333;28;20558;-83
2021/05/01 09:56:53;;;;;;;10.37;4.47;;;20.70;58.30;;;;;;4938637;28;20233;-79
2021/05/01 09:59:20;;;;;;;10.77;5.00;;;20.70;57.90;;;;;;4945424;28;20256;-79
2021/05/01 10:01:58;;;;;;;10.90;4.63;;;20.70;57.50;;;;;;4950604;28;20228;-79
2021/05/01 10:04:28;;;;;;;8.27;4.60;;;20.80;56.60;;;;;;4937071;28;20577;-80
2021/05/01 10:07:11;;;;;;;6.57;4.20;;;20.80;55.50;;;;;;4944196;28;20256;-79
2021/05/01 10:09:43;;;;;;;9.63;3.97;;;20.80;55.00;;;;;;4944577;28;20362;-78
2021/05/01 10:12:15;;;;;;;7.30;3.87;;;20.80;54.70;;;;;;4945621;28;20257;-80
2021/05/01 10:14:49;;;;;;;7.43;3.40;;;20.80;54.00;;;;;;4946067;28;20489;-80
2021/05/01 10:17:23;;;;;;;4.70;3.13;;;20.80;53.30;;;;;;4929320;28;21590;-78
2021/05/01 10:19:53;;;;;;;8.00;3.40;;;20.80;53.30;;;;;;4939787;28;20303;-78
2021/05/01 10:22:39;;;;;;;6.17;3.80;;;20.80;53.00;;;;;;4930629;28;20241;-78
2021/05/01 10:25:07;;;;;;;6.43;3.47;;;20.70;52.90;;;;;;4927597;28;20930;-78
2021/05/01 10:30:44;;;;;;;4.90;3.03;;;20.70;52.40;;;;;;4936885;28;20718;-80
2021/05/01 10:33:38;;;;;;;5.20;3.13;;;20.70;52.30;;;;;;4945608;28;20752;-80
2021/05/01 10:36:33;;;;;;;4.37;3.27;;;20.60;52.20;;;;;;4928004;28;20316;-78
2021/05/01 10:39:06;;;;;;;4.93;3.27;;;20.60;52.20;;;;;;4928136;28;20227;-78
2021/05/01 10:41:33;;;;;;;5.97;3.30;;;20.60;52.10;;;;;;4938913;28;20220;-78
2021/05/01 10:44:05;;;;;;;4.37;3.53;;;20.60;51.80;;;;;;4942198;28;20230;-77
2021/05/01 10:46:39;;;;;;;4.03;3.57;;;20.60;51.70;;;;;;4941643;28;20225;-78
2021/05/01 10:49:10;;;;;;;4.00;2.73;;;20.60;51.60;;;;;;4942146;28;20780;-80
2021/05/01 10:51:47;;;;;;;5.00;3.10;;;20.60;51.50;;;;;;4941511;28;20226;-78
2021/05/01 10:54:14;;;;;;;5.50;2.97;;;20.60;51.50;;;;;;4946599;28;20590;-78
2021/05/01 10:56:44;;;;;;;4.37;3.10;;;20.60;51.30;;;;;;4941917;28;20241;-78
2021/05/01 10:59:13;;;;;;;4.03;2.90;;;20.60;51.10;;;;;;4936294;28;20763;-77
2021/05/01 11:01:47;;;;;;;3.00;2.70;;;20.50;51.10;;;;;;4938631;28;20860;-78
2021/05/01 11:04:17;;;;;;;4.70;2.90;;;20.50;51.20;;;;;;4934545;28;20233;-77
2021/05/01 11:06:51;;;;;;;3.53;2.60;;;20.50;51.40;;;;;;4937301;28;20706;-78
2021/05/01 11:09:43;;;;;;;3.13;2.60;;;20.50;51.50;;;;;;4936239;28;20233;-78
2021/05/01 11:12:23;;;;;;;3.87;2.30;;;20.50;51.40;;;;;;4923000;28;20811;-77
2021/05/01 11:15:00;;;;;;;2.47;2.10;;;20.50;51.80;;;;;;4936156;28;20245;-77
2021/05/01 11:17:32;;;;;;;2.97;2.30;;;20.50;51.00;;;;;;4925794;28;20929;-78
2021/05/01 11:20:04;;;;;;;3.07;2.40;;;20.40;51.00;;;;;;4938746;28;20241;-76
2021/05/01 11:22:37;;;;;;;2.40;2.20;;;20.50;51.00;;;;;;4942648;28;20280;-76
2021/05/01 11:25:06;;;;;;;3.50;2.30;;;20.40;50.90;;;;;;4939505;28;20221;-77
2021/05/01 11:27:41;;;;;;;3.30;2.50;;;20.40;50.90;;;;;;4932427;28;20237;-76
2021/05/01 11:30:09;;;;;;;2.90;2.20;;;20.40;50.90;;;;;;4936733;28;20230;-75
2021/05/01 11:32:36;;;;;;;2.83;1.97;;;20.40;51.10;;;;;;4936680;28;20226;-78
2021/05/01 11:35:07;;;;;;;2.27;1.77;;;20.40;51.00;;;;;;4937770;28;20688;-78
2021/05/01 11:37:39;;;;;;;1.93;1.67;;;20.40;50.60;;;;;;4939167;28;20267;-78
2021/05/01 11:40:10;;;;;;;3.93;2.10;;;20.40;50.20;;;;;;4938663;28;20244;-78
2021/05/01 11:42:39;;;;;;;3.17;2.30;;;20.40;50.10;;;;;;4957359;28;20308;-77
2021/05/01 11:45:43;;;;;;;2.80;1.70;;;20.40;50.00;;;;;;4940748;28;20245;-77
2021/05/01 11:48:28;;;;;;;2.50;1.70;;;20.40;49.80;;;;;;4906244;28;20302;-78
2021/05/01 11:50:54;;;;;;;4.30;1.57;;;20.40;49.80;;;;;;4935118;28;21807;-77
2021/05/01 11:53:43;;;;;;;1.90;1.60;;;20.40;50.00;;;;;;4936971;28;20221;-78
2021/05/01 11:56:52;;;;;;;2.53;2.07;;;20.40;50.00;;;;;;4935549;28;20232;-78
2021/05/01 11:59:29;;;;;;;3.10;1.77;;;20.40;49.80;;;;;;4921913;28;20316;-78
2021/05/01 12:02:02;;;;;;;1.83;1.60;;;20.40;49.80;;;;;;4941853;28;20374;-78
2021/05/01 12:04:47;;;;;;;2.37;1.43;;;20.40;49.80;;;;;;4915837;28;20232;-78
2021/05/01 12:07:26;;;;;;;1.63;1.50;;;20.40;49.90;;;;;;4919910;28;20697;-79
2021/05/01 12:09:57;;;;;;;1.87;1.60;;;20.30;49.90;;;;;;4932530;28;21698;-78
2021/05/01 12:12:24;;;;;;;2.50;1.67;;;20.40;50.00;;;;;;4940159;28;20229;-76
2021/05/01 12:15:01;;;;;;;3.50;1.80;;;20.40;49.80;;;;;;4936133;28;20839;-77
2021/05/01 12:17:35;;;;;;;2.80;1.70;;;20.40;49.70;;;;;;4927348;28;20440;-77
2021/05/01 12:20:10;;;;;;;4.17;1.70;;;20.40;50.20;;;;;;4935045;28;20309;-84
2021/05/01 12:22:36;;;;;;;2.27;1.47;;;20.40;50.20;;;;;;4956276;28;20243;-79
2021/05/01 12:25:30;;;;;;;3.03;1.43;;;20.50;50.30;;;;;;4939759;28;20229;-79
2021/05/01 12:27:59;;;;;;;4.37;1.60;;;20.60;50.80;;;;;;4924461;28;20234;-81
2021/05/01 12:30:39;;;;;;;5.13;1.60;;;20.70;44.90;;;;;;5021474;27;706505;-81
2021/05/01 12:33:27;;;;;;;3.17;1.60;;;20.80;46.20;;;;;;5027258;28;20223;-80
2021/05/01 12:36:23;;;;;;;2.83;1.43;;;20.90;45.70;;;;;;5055667;28;20375;-80
2021/05/01 12:38:50;;;;;;;4.53;1.77;;;21.00;45.60;;;;;;5016255;28;20222;-79
2021/05/01 12:41:37;;;;;;;4.50;1.43;;;21.10;45.40;;;;;;5045905;28;20642;-81
2021/05/01 12:44:04;;;;;;;4.00;1.50;;;21.20;45.20;;;;;;5035965;28;20387;-78
2021/05/01 12:46:43;;;;;;;1.80;1.50;;;21.30;45.30;;;;;;5038426;28;20775;-80
2021/05/01 12:51:31;;;;;;;5.87;1.50;;;21.40;44.20;;;;;;5111263;27;695522;-81
2021/05/01 12:53:59;;;;;;;4.00;1.50;;;21.40;44.70;;;;;;5015332;28;20267;-80
2021/05/01 12:56:29;;;;;;;2.77;1.40;;;21.50;44.50;;;;;;5108127;27;20222;-80
2021/05/01 12:59:18;;;;;;;4.20;1.80;;;21.50;44.80;;;;;;5101954;27;20222;-78
2021/05/01 13:01:53;;;;;;;2.17;1.40;;;21.60;44.80;;;;;;5111601;28;20267;-81
2021/05/01 13:04:35;;;;;;;2.30;1.60;;;21.60;44.60;;;;;;5119252;27;20768;-80
2021/05/01 13:07:04;;;;;;;1.67;1.53;;;21.60;44.50;;;;;;5100272;27;20216;-80